Harelbeke, Belgium
Current Conditions -  °F | °C
As of 5:30 PM on Wednesday 22 Oct 2014 (Local Time) from LFQQ Reporting Station
Scattered Clouds Scattered Clouds  
Wind Chill: 54°   Ceiling: Unl
Heat Index: 54°   Visibility: 6mi
Dew Point: 43°   Wind: 10mph
Humidity: 67%   Direction: 310°NW
Pressure: 30.24"   Gusts: NA
Location:  50.85°N, 3.31°E
Report Text: LFQQ 221530Z 31009KT 9999 FEW032 SCT053 12/06 Q1024 NOSIG
Loading
Personal Weather Stations






























Interactive Weather Map
Tropical Storm Tracking
New forecast layout! Learn more

10-Day Weather Forecast

Advertisements
Track Severe Weather on mobile